sensor_id;sensor_type;location;lat;lon;timestamp;P1;durP1;ratioP1;P2;durP2;ratioP2
83245;SDS011;73140;46.754;17.714;2023-12-20T09:41:49;33.85;;;9.05;;
83245;SDS011;73140;46.754;17.714;2023-12-20T10:57:25;20.70;;;10.60;;
83245;SDS011;73140;46.754;17.714;2023-12-20T10:59:57;21.90;;;10.30;;
83245;SDS011;73140;46.754;17.714;2023-12-20T11:02:45;21.10;;;10.40;;
83245;SDS011;73140;46.754;17.714;2023-12-20T11:05:33;19.83;;;9.82;;
83245;SDS011;73140;46.754;17.714;2023-12-20T11:08:19;38.58;;;11.40;;
83245;SDS011;73140;46.754;17.714;2023-12-20T11:11:05;22.08;;;10.15;;
83245;SDS011;73140;46.754;17.714;2023-12-20T11:14:00;28.55;;;11.60;;
83245;SDS011;73140;46.754;17.714;2023-12-20T11:16:40;18.90;;;10.07;;
83245;SDS011;73140;46.754;17.714;2023-12-20T11:19:23;24.15;;;10.63;;
83245;SDS011;73140;46.754;17.714;2023-12-20T11:22:00;36.17;;;11.20;;
83245;SDS011;73140;46.754;17.714;2023-12-20T11:24:28;24.92;;;10.07;;
83245;SDS011;73140;46.754;17.714;2023-12-20T11:27:04;27.38;;;9.25;;
83245;SDS011;73140;46.754;17.714;2023-12-20T11:29:43;23.92;;;9.32;;
83245;SDS011;73140;46.754;17.714;2023-12-20T11:32:36;25.48;;;9.00;;
83245;SDS011;73140;46.754;17.714;2023-12-20T11:35:18;36.60;;;10.45;;
83245;SDS011;73140;46.754;17.714;2023-12-20T11:37:55;40.70;;;10.48;;
83245;SDS011;73140;46.754;17.714;2023-12-20T11:40:40;22.05;;;9.05;;
83245;SDS011;73140;46.754;17.714;2023-12-20T11:43:31;22.23;;;10.93;;
83245;SDS011;73140;46.754;17.714;2023-12-20T11:46:07;17.77;;;9.18;;
83245;SDS011;73140;46.754;17.714;2023-12-20T11:48:37;17.25;;;9.63;;
83245;SDS011;73140;46.754;17.714;2023-12-20T11:51:08;20.15;;;10.57;;
83245;SDS011;73140;46.754;17.714;2023-12-20T11:53:35;21.33;;;10.93;;
83245;SDS011;73140;46.754;17.714;2023-12-20T11:56:02;20.90;;;11.15;;
83245;SDS011;73140;46.754;17.714;2023-12-20T11:58:29;24.05;;;10.43;;
83245;SDS011;73140;46.754;17.714;2023-12-20T12:00:56;25.45;;;10.90;;
83245;SDS011;73140;46.754;17.714;2023-12-20T12:03:25;30.17;;;12.27;;
83245;SDS011;73140;46.754;17.714;2023-12-20T12:05:51;26.63;;;11.55;;
83245;SDS011;73140;46.754;17.714;2023-12-20T12:08:17;20.05;;;9.73;;
83245;SDS011;73140;46.754;17.714;2023-12-20T12:10:43;21.90;;;10.88;;
83245;SDS011;73140;46.754;17.714;2023-12-20T12:13:13;16.70;;;9.00;;
83245;SDS011;73140;46.754;17.714;2023-12-20T12:15:39;15.32;;;9.48;;
83245;SDS011;73140;46.754;17.714;2023-12-20T12:18:07;14.10;;;8.50;;
83245;SDS011;73140;46.754;17.714;2023-12-20T12:20:35;17.33;;;9.10;;
83245;SDS011;73140;46.754;17.714;2023-12-20T12:23:01;15.40;;;8.65;;
83245;SDS011;73140;46.754;17.714;2023-12-20T12:25:29;16.45;;;9.30;;
83245;SDS011;73140;46.754;17.714;2023-12-20T12:27:58;17.02;;;9.52;;
83245;SDS011;73140;46.754;17.714;2023-12-20T12:30:25;16.13;;;8.93;;
83245;SDS011;73140;46.754;17.714;2023-12-20T12:32:51;16.15;;;9.32;;
83245;SDS011;73140;46.754;17.714;2023-12-20T12:35:17;20.52;;;10.52;;
83245;SDS011;73140;46.754;17.714;2023-12-20T12:37:46;18.88;;;10.20;;
83245;SDS011;73140;46.754;17.714;2023-12-20T12:40:12;16.25;;;8.80;;
83245;SDS011;73140;46.754;17.714;2023-12-20T12:42:40;17.38;;;10.15;;
83245;SDS011;73140;46.754;17.714;2023-12-20T12:45:07;16.52;;;9.68;;
83245;SDS011;73140;46.754;17.714;2023-12-20T12:47:33;17.42;;;9.80;;
83245;SDS011;73140;46.754;17.714;2023-12-20T12:50:00;16.08;;;9.35;;
83245;SDS011;73140;46.754;17.714;2023-12-20T12:52:26;20.42;;;10.70;;
83245;SDS011;73140;46.754;17.714;2023-12-20T12:54:54;16.38;;;9.68;;
83245;SDS011;73140;46.754;17.714;2023-12-20T12:57:20;15.18;;;8.68;;
83245;SDS011;73140;46.754;17.714;2023-12-20T12:59:46;15.35;;;8.85;;
83245;SDS011;73140;46.754;17.714;2023-12-20T13:02:12;14.02;;;7.72;;
83245;SDS011;73140;46.754;17.714;2023-12-20T13:04:38;11.10;;;6.55;;
83245;SDS011;73140;46.754;17.714;2023-12-20T13:07:04;9.88;;;6.18;;
83245;SDS011;73140;46.754;17.714;2023-12-20T13:09:31;10.90;;;6.78;;
83245;SDS011;73140;46.754;17.714;2023-12-20T13:11:58;10.60;;;6.60;;
83245;SDS011;73140;46.754;17.714;2023-12-20T13:14:25;10.05;;;5.78;;
83245;SDS011;73140;46.754;17.714;2023-12-20T13:16:51;9.15;;;5.60;;
83245;SDS011;73140;46.754;17.714;2023-12-20T13:19:17;9.82;;;6.45;;
83245;SDS011;73140;46.754;17.714;2023-12-20T13:21:43;7.38;;;4.70;;
83245;SDS011;73140;46.754;17.714;2023-12-20T13:24:09;9.02;;;4.88;;
83245;SDS011;73140;46.754;17.714;2023-12-20T13:26:34;8.80;;;5.40;;
83245;SDS011;73140;46.754;17.714;2023-12-20T13:29:03;9.23;;;5.72;;
83245;SDS011;73140;46.754;17.714;2023-12-20T13:31:29;9.77;;;5.80;;
83245;SDS011;73140;46.754;17.714;2023-12-20T13:33:55;12.95;;;7.25;;
83245;SDS011;73140;46.754;17.714;2023-12-20T13:36:21;9.38;;;6.07;;
83245;SDS011;73140;46.754;17.714;2023-12-20T13:38:47;9.50;;;5.78;;
83245;SDS011;73140;46.754;17.714;2023-12-20T13:41:13;10.07;;;5.90;;
83245;SDS011;73140;46.754;17.714;2023-12-20T13:43:39;8.80;;;5.10;;
83245;SDS011;73140;46.754;17.714;2023-12-20T13:46:06;8.23;;;5.10;;
83245;SDS011;73140;46.754;17.714;2023-12-20T13:48:32;8.90;;;5.63;;
83245;SDS011;73140;46.754;17.714;2023-12-20T13:50:58;8.63;;;5.03;;
83245;SDS011;73140;46.754;17.714;2023-12-20T13:53:25;7.65;;;4.70;;
83245;SDS011;73140;46.754;17.714;2023-12-20T13:55:51;12.00;;;6.75;;
83245;SDS011;73140;46.754;17.714;2023-12-20T13:58:17;11.43;;;6.70;;
83245;SDS011;73140;46.754;17.714;2023-12-20T14:00:43;10.75;;;6.63;;
83245;SDS011;73140;46.754;17.714;2023-12-20T14:03:10;9.95;;;6.18;;
83245;SDS011;73140;46.754;17.714;2023-12-20T14:05:36;15.55;;;8.57;;
83245;SDS011;73140;46.754;17.714;2023-12-20T14:08:03;13.43;;;7.75;;
83245;SDS011;73140;46.754;17.714;2023-12-20T14:10:29;10.93;;;6.70;;
83245;SDS011;73140;46.754;17.714;2023-12-20T14:12:55;9.75;;;6.20;;
83245;SDS011;73140;46.754;17.714;2023-12-20T14:15:21;13.00;;;7.00;;
83245;SDS011;73140;46.754;17.714;2023-12-20T14:17:50;13.63;;;7.72;;
83245;SDS011;73140;46.754;17.714;2023-12-20T14:20:18;11.30;;;6.72;;
83245;SDS011;73140;46.754;17.714;2023-12-20T14:22:44;12.38;;;6.95;;
83245;SDS011;73140;46.754;17.714;2023-12-20T14:25:11;17.00;;;10.25;;
83245;SDS011;73140;46.754;17.714;2023-12-20T14:27:38;12.05;;;6.88;;
83245;SDS011;73140;46.754;17.714;2023-12-20T14:30:05;13.80;;;9.07;;
83245;SDS011;73140;46.754;17.714;2023-12-20T14:32:32;10.50;;;6.68;;
83245;SDS011;73140;46.754;17.714;2023-12-20T14:35:02;12.45;;;7.95;;
83245;SDS011;73140;46.754;17.714;2023-12-20T14:37:31;10.93;;;6.57;;
83245;SDS011;73140;46.754;17.714;2023-12-20T14:39:57;12.80;;;7.68;;
83245;SDS011;73140;46.754;17.714;2023-12-20T14:42:23;11.68;;;7.40;;
83245;SDS011;73140;46.754;17.714;2023-12-20T14:44:49;10.73;;;7.00;;
83245;SDS011;73140;46.754;17.714;2023-12-20T14:47:17;12.75;;;7.10;;
83245;SDS011;73140;46.754;17.714;2023-12-20T14:49:43;12.30;;;6.90;;
83245;SDS011;73140;46.754;17.714;2023-12-20T14:52:09;12.88;;;6.68;;
83245;SDS011;73140;46.754;17.714;2023-12-20T14:54:38;10.35;;;6.93;;
83245;SDS011;73140;46.754;17.714;2023-12-20T14:57:04;12.40;;;6.32;;
83245;SDS011;73140;46.754;17.714;2023-12-20T14:59:30;11.10;;;6.88;;
83245;SDS011;73140;46.754;17.714;2023-12-20T15:01:56;11.38;;;7.38;;
83245;SDS011;73140;46.754;17.714;2023-12-20T15:04:22;10.15;;;6.13;;
83245;SDS011;73140;46.754;17.714;2023-12-20T15:06:53;11.32;;;7.07;;
83245;SDS011;73140;46.754;17.714;2023-12-20T15:09:20;11.93;;;6.85;;
83245;SDS011;73140;46.754;17.714;2023-12-20T15:11:47;10.82;;;6.15;;
83245;SDS011;73140;46.754;17.714;2023-12-20T15:14:13;11.55;;;7.07;;
83245;SDS011;73140;46.754;17.714;2023-12-20T15:16:45;11.60;;;7.07;;
83245;SDS011;73140;46.754;17.714;2023-12-20T15:19:12;11.50;;;6.57;;
83245;SDS011;73140;46.754;17.714;2023-12-20T15:21:38;10.52;;;6.30;;
83245;SDS011;73140;46.754;17.714;2023-12-20T15:24:08;11.45;;;6.63;;
83245;SDS011;73140;46.754;17.714;2023-12-20T15:26:40;9.73;;;5.82;;
83245;SDS011;73140;46.754;17.714;2023-12-20T15:29:09;11.60;;;6.88;;
83245;SDS011;73140;46.754;17.714;2023-12-20T15:31:35;11.13;;;6.22;;
83245;SDS011;73140;46.754;17.714;2023-12-20T15:34:02;10.13;;;5.78;;
83245;SDS011;73140;46.754;17.714;2023-12-20T15:36:28;8.13;;;4.50;;
83245;SDS011;73140;46.754;17.714;2023-12-20T15:38:54;8.88;;;5.53;;
83245;SDS011;73140;46.754;17.714;2023-12-20T15:41:21;8.63;;;5.38;;
83245;SDS011;73140;46.754;17.714;2023-12-20T15:43:49;9.35;;;5.00;;
83245;SDS011;73140;46.754;17.714;2023-12-20T15:46:16;7.82;;;4.35;;
83245;SDS011;73140;46.754;17.714;2023-12-20T15:48:42;7.65;;;4.72;;
83245;SDS011;73140;46.754;17.714;2023-12-20T15:51:09;8.98;;;5.03;;
83245;SDS011;73140;46.754;17.714;2023-12-20T15:53:35;8.23;;;4.70;;
83245;SDS011;73140;46.754;17.714;2023-12-20T15:56:02;8.82;;;5.35;;
83245;SDS011;73140;46.754;17.714;2023-12-20T15:58:29;6.90;;;4.35;;
83245;SDS011;73140;46.754;17.714;2023-12-20T16:00:55;8.27;;;4.80;;
83245;SDS011;73140;46.754;17.714;2023-12-20T16:03:23;8.02;;;5.10;;
83245;SDS011;73140;46.754;17.714;2023-12-20T16:05:49;8.70;;;4.55;;
83245;SDS011;73140;46.754;17.714;2023-12-20T16:08:15;6.15;;;3.70;;
83245;SDS011;73140;46.754;17.714;2023-12-20T16:10:41;5.28;;;3.58;;
83245;SDS011;73140;46.754;17.714;2023-12-20T16:13:07;6.60;;;3.72;;
83245;SDS011;73140;46.754;17.714;2023-12-20T16:15:34;4.90;;;3.10;;
83245;SDS011;73140;46.754;17.714;2023-12-20T16:18:00;4.95;;;2.70;;
83245;SDS011;73140;46.754;17.714;2023-12-20T16:20:28;4.45;;;2.67;;
83245;SDS011;73140;46.754;17.714;2023-12-20T16:22:54;4.70;;;2.63;;
83245;SDS011;73140;46.754;17.714;2023-12-20T16:25:20;6.75;;;3.65;;
83245;SDS011;73140;46.754;17.714;2023-12-20T16:27:46;6.10;;;3.20;;
83245;SDS011;73140;46.754;17.714;2023-12-20T16:30:13;5.78;;;3.17;;
83245;SDS011;73140;46.754;17.714;2023-12-20T16:32:40;5.82;;;3.67;;
83245;SDS011;73140;46.754;17.714;2023-12-20T16:35:06;6.38;;;3.63;;
83245;SDS011;73140;46.754;17.714;2023-12-20T16:37:34;8.45;;;5.35;;
83245;SDS011;73140;46.754;17.714;2023-12-20T16:40:03;7.47;;;5.10;;
83245;SDS011;73140;46.754;17.714;2023-12-20T16:42:30;10.13;;;5.47;;
83245;SDS011;73140;46.754;17.714;2023-12-20T16:44:56;8.95;;;5.78;;
83245;SDS011;73140;46.754;17.714;2023-12-20T16:47:22;9.40;;;5.88;;
83245;SDS011;73140;46.754;17.714;2023-12-20T16:49:48;9.85;;;5.70;;
83245;SDS011;73140;46.754;17.714;2023-12-20T16:52:14;10.90;;;5.88;;
83245;SDS011;73140;46.754;17.714;2023-12-20T16:54:41;10.35;;;5.68;;
83245;SDS011;73140;46.754;17.714;2023-12-20T16:57:07;8.50;;;5.25;;
83245;SDS011;73140;46.754;17.714;2023-12-20T16:59:34;9.57;;;5.88;;
83245;SDS011;73140;46.754;17.714;2023-12-20T17:01:59;7.93;;;4.90;;
83245;SDS011;73140;46.754;17.714;2023-12-20T17:04:29;6.72;;;4.03;;
83245;SDS011;73140;46.754;17.714;2023-12-20T17:06:57;8.32;;;4.40;;
83245;SDS011;73140;46.754;17.714;2023-12-20T17:09:24;5.97;;;3.67;;
83245;SDS011;73140;46.754;17.714;2023-12-20T17:11:52;8.45;;;4.82;;
83245;SDS011;73140;46.754;17.714;2023-12-20T17:14:19;8.13;;;4.57;;
83245;SDS011;73140;46.754;17.714;2023-12-20T17:16:45;6.85;;;4.18;;
83245;SDS011;73140;46.754;17.714;2023-12-20T17:19:13;8.35;;;4.47;;
83245;SDS011;73140;46.754;17.714;2023-12-20T17:21:39;9.10;;;4.80;;
83245;SDS011;73140;46.754;17.714;2023-12-20T17:24:06;7.85;;;5.03;;
83245;SDS011;73140;46.754;17.714;2023-12-20T17:26:32;7.57;;;4.63;;
83245;SDS011;73140;46.754;17.714;2023-12-20T17:28:59;8.52;;;5.32;;
83245;SDS011;73140;46.754;17.714;2023-12-20T17:31:25;9.60;;;5.20;;
83245;SDS011;73140;46.754;17.714;2023-12-20T17:33:51;8.43;;;4.90;;
83245;SDS011;73140;46.754;17.714;2023-12-20T17:36:17;5.78;;;3.72;;
83245;SDS011;73140;46.754;17.714;2023-12-20T17:38:43;6.07;;;3.83;;
83245;SDS011;73140;46.754;17.714;2023-12-20T17:41:09;6.15;;;3.45;;
83245;SDS011;73140;46.754;17.714;2023-12-20T17:43:36;6.15;;;3.63;;
83245;SDS011;73140;46.754;17.714;2023-12-20T17:46:03;7.07;;;3.55;;
83245;SDS011;73140;46.754;17.714;2023-12-20T17:48:29;5.72;;;3.47;;
83245;SDS011;73140;46.754;17.714;2023-12-20T17:50:55;5.78;;;3.60;;
83245;SDS011;73140;46.754;17.714;2023-12-20T17:53:21;7.07;;;3.53;;
83245;SDS011;73140;46.754;17.714;2023-12-20T17:55:47;8.00;;;4.25;;
83245;SDS011;73140;46.754;17.714;2023-12-20T17:58:13;5.22;;;3.47;;
83245;SDS011;73140;46.754;17.714;2023-12-20T18:00:39;6.45;;;3.70;;
83245;SDS011;73140;46.754;17.714;2023-12-20T18:03:07;6.90;;;3.80;;
83245;SDS011;73140;46.754;17.714;2023-12-20T18:05:33;4.50;;;3.05;;
83245;SDS011;73140;46.754;17.714;2023-12-20T18:07:59;7.40;;;4.15;;
83245;SDS011;73140;46.754;17.714;2023-12-20T18:10:25;8.73;;;5.05;;
83245;SDS011;73140;46.754;17.714;2023-12-20T18:12:51;7.95;;;4.18;;
83245;SDS011;73140;46.754;17.714;2023-12-20T18:15:17;6.57;;;4.30;;
83245;SDS011;73140;46.754;17.714;2023-12-20T18:17:43;7.25;;;4.40;;
83245;SDS011;73140;46.754;17.714;2023-12-20T18:20:12;6.72;;;4.00;;
83245;SDS011;73140;46.754;17.714;2023-12-20T18:22:38;7.63;;;4.50;;
83245;SDS011;73140;46.754;17.714;2023-12-20T18:25:05;6.82;;;4.53;;
83245;SDS011;73140;46.754;17.714;2023-12-20T18:27:31;8.27;;;5.20;;
83245;SDS011;73140;46.754;17.714;2023-12-20T18:29:57;7.85;;;5.18;;
83245;SDS011;73140;46.754;17.714;2023-12-20T18:32:30;6.85;;;4.70;;
83245;SDS011;73140;46.754;17.714;2023-12-20T18:34:56;8.98;;;5.70;;
83245;SDS011;73140;46.754;17.714;2023-12-20T18:37:24;7.90;;;4.80;;
83245;SDS011;73140;46.754;17.714;2023-12-20T18:39:50;9.55;;;4.95;;
83245;SDS011;73140;46.754;17.714;2023-12-20T18:42:16;8.38;;;4.80;;
83245;SDS011;73140;46.754;17.714;2023-12-20T18:44:42;6.78;;;4.15;;
83245;SDS011;73140;46.754;17.714;2023-12-20T18:47:08;6.85;;;4.70;;
83245;SDS011;73140;46.754;17.714;2023-12-20T18:49:34;7.22;;;4.68;;
83245;SDS011;73140;46.754;17.714;2023-12-20T18:52:00;6.68;;;4.25;;
83245;SDS011;73140;46.754;17.714;2023-12-20T18:54:29;7.40;;;4.68;;
83245;SDS011;73140;46.754;17.714;2023-12-20T18:56:55;7.40;;;4.75;;
83245;SDS011;73140;46.754;17.714;2023-12-20T18:59:21;8.65;;;5.03;;
83245;SDS011;73140;46.754;17.714;2023-12-20T19:01:47;7.57;;;4.43;;
83245;SDS011;73140;46.754;17.714;2023-12-20T19:04:13;6.35;;;3.80;;
83245;SDS011;73140;46.754;17.714;2023-12-20T19:06:41;6.15;;;3.92;;
83245;SDS011;73140;46.754;17.714;2023-12-20T19:09:07;7.28;;;3.63;;
83245;SDS011;73140;46.754;17.714;2023-12-20T19:11:34;6.82;;;3.92;;
83245;SDS011;73140;46.754;17.714;2023-12-20T19:14:01;4.85;;;3.10;;
83245;SDS011;73140;46.754;17.714;2023-12-20T19:16:27;4.53;;;2.83;;
83245;SDS011;73140;46.754;17.714;2023-12-20T19:18:54;4.82;;;2.92;;
83245;SDS011;73140;46.754;17.714;2023-12-20T19:21:19;5.72;;;3.13;;
83245;SDS011;73140;46.754;17.714;2023-12-20T19:23:46;4.40;;;2.85;;
83245;SDS011;73140;46.754;17.714;2023-12-20T19:26:13;4.28;;;2.80;;
83245;SDS011;73140;46.754;17.714;2023-12-20T19:28:40;4.68;;;2.92;;
83245;SDS011;73140;46.754;17.714;2023-12-20T19:31:08;4.68;;;2.75;;
83245;SDS011;73140;46.754;17.714;2023-12-20T19:33:35;4.15;;;2.55;;
83245;SDS011;73140;46.754;17.714;2023-12-20T19:36:02;5.95;;;3.20;;
83245;SDS011;73140;46.754;17.714;2023-12-20T19:38:29;4.10;;;2.75;;
83245;SDS011;73140;46.754;17.714;2023-12-20T19:40:55;6.15;;;3.25;;
83245;SDS011;73140;46.754;17.714;2023-12-20T19:43:21;5.40;;;3.15;;
83245;SDS011;73140;46.754;17.714;2023-12-20T19:45:49;5.20;;;3.03;;
83245;SDS011;73140;46.754;17.714;2023-12-20T19:48:15;4.57;;;2.92;;
83245;SDS011;73140;46.754;17.714;2023-12-20T19:50:41;4.53;;;2.92;;
83245;SDS011;73140;46.754;17.714;2023-12-20T19:53:07;5.68;;;2.90;;
83245;SDS011;73140;46.754;17.714;2023-12-20T19:55:34;4.55;;;2.70;;
83245;SDS011;73140;46.754;17.714;2023-12-20T19:58:00;4.57;;;2.70;;
83245;SDS011;73140;46.754;17.714;2023-12-20T20:00:27;4.32;;;2.72;;
83245;SDS011;73140;46.754;17.714;2023-12-20T20:02:56;4.72;;;2.85;;
83245;SDS011;73140;46.754;17.714;2023-12-20T20:05:22;4.15;;;2.85;;
83245;SDS011;73140;46.754;17.714;2023-12-20T20:07:50;4.43;;;2.55;;
83245;SDS011;73140;46.754;17.714;2023-12-20T20:10:16;5.18;;;2.88;;
83245;SDS011;73140;46.754;17.714;2023-12-20T20:12:42;4.35;;;2.55;;
83245;SDS011;73140;46.754;17.714;2023-12-20T20:15:08;4.82;;;3.08;;
83245;SDS011;73140;46.754;17.714;2023-12-20T20:17:35;6.13;;;3.15;;
83245;SDS011;73140;46.754;17.714;2023-12-20T20:20:03;6.20;;;3.00;;
83245;SDS011;73140;46.754;17.714;2023-12-20T20:22:31;9.27;;;4.38;;
83245;SDS011;73140;46.754;17.714;2023-12-20T20:24:59;10.18;;;4.38;;
83245;SDS011;73140;46.754;17.714;2023-12-20T20:27:25;18.83;;;7.70;;
83245;SDS011;73140;46.754;17.714;2023-12-20T20:29:51;15.13;;;6.88;;
83245;SDS011;73140;46.754;17.714;2023-12-20T20:32:17;14.27;;;5.13;;
83245;SDS011;73140;46.754;17.714;2023-12-20T20:34:43;5.00;;;3.05;;
83245;SDS011;73140;46.754;17.714;2023-12-20T20:37:11;21.73;;;7.45;;
83245;SDS011;73140;46.754;17.714;2023-12-20T20:39:37;4.25;;;2.70;;
83245;SDS011;73140;46.754;17.714;2023-12-20T20:42:03;6.05;;;3.00;;
83245;SDS011;73140;46.754;17.714;2023-12-20T20:44:29;5.72;;;3.45;;
83245;SDS011;73140;46.754;17.714;2023-12-20T20:46:55;6.25;;;3.75;;
83245;SDS011;73140;46.754;17.714;2023-12-20T20:49:22;5.75;;;3.58;;
83245;SDS011;73140;46.754;17.714;2023-12-20T20:51:49;7.78;;;4.68;;
83245;SDS011;73140;46.754;17.714;2023-12-20T20:54:18;7.47;;;4.78;;
83245;SDS011;73140;46.754;17.714;2023-12-20T20:56:44;9.80;;;6.00;;
83245;SDS011;73140;46.754;17.714;2023-12-20T20:59:10;10.55;;;6.55;;
83245;SDS011;73140;46.754;17.714;2023-12-20T21:01:36;9.10;;;5.80;;
83245;SDS011;73140;46.754;17.714;2023-12-20T21:04:03;8.90;;;5.68;;
83245;SDS011;73140;46.754;17.714;2023-12-20T21:06:29;14.85;;;7.25;;
83245;SDS011;73140;46.754;17.714;2023-12-20T21:08:55;13.52;;;8.18;;
83245;SDS011;73140;46.754;17.714;2023-12-20T21:11:23;14.20;;;8.07;;
83245;SDS011;73140;46.754;17.714;2023-12-20T21:13:49;13.73;;;7.95;;
83245;SDS011;73140;46.754;17.714;2023-12-20T21:16:16;11.65;;;6.20;;
83245;SDS011;73140;46.754;17.714;2023-12-20T21:18:42;9.23;;;5.75;;
83245;SDS011;73140;46.754;17.714;2023-12-20T21:21:09;9.20;;;5.30;;
83245;SDS011;73140;46.754;17.714;2023-12-20T21:23:38;10.30;;;6.43;;
83245;SDS011;73140;46.754;17.714;2023-12-20T21:26:04;9.65;;;5.63;;
83245;SDS011;73140;46.754;17.714;2023-12-20T21:28:34;9.48;;;5.97;;
83245;SDS011;73140;46.754;17.714;2023-12-20T21:31:01;8.20;;;4.60;;
83245;SDS011;73140;46.754;17.714;2023-12-20T21:33:27;8.65;;;5.22;;
83245;SDS011;73140;46.754;17.714;2023-12-20T21:35:53;9.55;;;5.35;;
83245;SDS011;73140;46.754;17.714;2023-12-20T21:38:19;9.77;;;5.72;;
83245;SDS011;73140;46.754;17.714;2023-12-20T21:40:45;5.40;;;3.78;;
83245;SDS011;73140;46.754;17.714;2023-12-20T21:43:12;8.32;;;4.18;;
83245;SDS011;73140;46.754;17.714;2023-12-20T21:45:40;5.07;;;3.00;;
83245;SDS011;73140;46.754;17.714;2023-12-20T21:48:08;5.85;;;3.70;;
83245;SDS011;73140;46.754;17.714;2023-12-20T21:50:34;9.48;;;5.70;;
83245;SDS011;73140;46.754;17.714;2023-12-20T21:53:02;13.48;;;7.85;;
83245;SDS011;73140;46.754;17.714;2023-12-20T21:55:28;14.98;;;9.98;;
83245;SDS011;73140;46.754;17.714;2023-12-20T21:57:56;17.73;;;10.05;;
83245;SDS011;73140;46.754;17.714;2023-12-20T22:00:22;16.10;;;9.35;;
83245;SDS011;73140;46.754;17.714;2023-12-20T22:02:50;15.45;;;8.43;;
83245;SDS011;73140;46.754;17.714;2023-12-20T22:05:16;10.30;;;6.05;;
83245;SDS011;73140;46.754;17.714;2023-12-20T22:07:42;14.57;;;8.55;;
83245;SDS011;73140;46.754;17.714;2023-12-20T22:10:08;16.38;;;9.55;;
83245;SDS011;73140;46.754;17.714;2023-12-20T22:12:34;12.13;;;7.15;;
83245;SDS011;73140;46.754;17.714;2023-12-20T22:15:00;12.70;;;7.93;;
83245;SDS011;73140;46.754;17.714;2023-12-20T22:17:26;13.43;;;7.72;;
83245;SDS011;73140;46.754;17.714;2023-12-20T22:19:54;14.68;;;8.85;;
83245;SDS011;73140;46.754;17.714;2023-12-20T22:22:20;13.90;;;8.63;;
83245;SDS011;73140;46.754;17.714;2023-12-20T22:24:46;13.25;;;8.32;;
83245;SDS011;73140;46.754;17.714;2023-12-20T22:27:12;10.40;;;6.45;;
83245;SDS011;73140;46.754;17.714;2023-12-20T22:29:38;13.15;;;8.15;;
83245;SDS011;73140;46.754;17.714;2023-12-20T22:32:04;14.23;;;8.35;;
83245;SDS011;73140;46.754;17.714;2023-12-20T22:34:33;13.60;;;7.97;;
83245;SDS011;73140;46.754;17.714;2023-12-20T22:37:00;14.43;;;8.35;;
83245;SDS011;73140;46.754;17.714;2023-12-20T22:39:26;12.57;;;8.20;;
83245;SDS011;73140;46.754;17.714;2023-12-20T22:41:52;12.15;;;7.93;;
83245;SDS011;73140;46.754;17.714;2023-12-20T22:44:18;12.50;;;7.53;;
83245;SDS011;73140;46.754;17.714;2023-12-20T22:46:44;10.60;;;6.82;;
83245;SDS011;73140;46.754;17.714;2023-12-20T22:49:10;11.93;;;7.53;;
83245;SDS011;73140;46.754;17.714;2023-12-20T22:51:36;10.65;;;6.85;;
83245;SDS011;73140;46.754;17.714;2023-12-20T22:54:04;12.35;;;7.22;;
83245;SDS011;73140;46.754;17.714;2023-12-20T22:56:30;12.95;;;7.60;;
83245;SDS011;73140;46.754;17.714;2023-12-20T22:58:56;11.40;;;7.15;;
83245;SDS011;73140;46.754;17.714;2023-12-20T23:01:22;13.38;;;7.60;;
83245;SDS011;73140;46.754;17.714;2023-12-20T23:03:48;10.50;;;6.53;;
83245;SDS011;73140;46.754;17.714;2023-12-20T23:06:14;9.35;;;5.80;;
83245;SDS011;73140;46.754;17.714;2023-12-20T23:08:40;9.90;;;5.93;;
83245;SDS011;73140;46.754;17.714;2023-12-20T23:11:08;9.68;;;5.57;;
83245;SDS011;73140;46.754;17.714;2023-12-20T23:13:34;8.43;;;5.72;;
83245;SDS011;73140;46.754;17.714;2023-12-20T23:16:00;7.03;;;4.70;;
83245;SDS011;73140;46.754;17.714;2023-12-20T23:18:26;9.50;;;6.22;;
83245;SDS011;73140;46.754;17.714;2023-12-20T23:20:52;10.82;;;6.40;;
83245;SDS011;73140;46.754;17.714;2023-12-20T23:23:36;11.07;;;6.80;;
83245;SDS011;73140;46.754;17.714;2023-12-20T23:26:02;7.88;;;5.18;;
83245;SDS011;73140;46.754;17.714;2023-12-20T23:28:30;9.90;;;6.22;;
83245;SDS011;73140;46.754;17.714;2023-12-20T23:30:56;10.88;;;7.05;;
83245;SDS011;73140;46.754;17.714;2023-12-20T23:33:22;13.40;;;8.73;;
83245;SDS011;73140;46.754;17.714;2023-12-20T23:35:48;13.85;;;9.18;;
83245;SDS011;73140;46.754;17.714;2023-12-20T23:38:14;14.45;;;9.88;;
83245;SDS011;73140;46.754;17.714;2023-12-20T23:40:40;14.95;;;10.38;;
83245;SDS011;73140;46.754;17.714;2023-12-20T23:43:06;15.82;;;9.85;;
83245;SDS011;73140;46.754;17.714;2023-12-20T23:45:34;13.52;;;8.93;;
83245;SDS011;73140;46.754;17.714;2023-12-20T23:48:00;13.48;;;8.57;;
83245;SDS011;73140;46.754;17.714;2023-12-20T23:50:26;14.93;;;10.27;;
83245;SDS011;73140;46.754;17.714;2023-12-20T23:52:52;15.65;;;10.25;;
83245;SDS011;73140;46.754;17.714;2023-12-20T23:55:18;14.98;;;10.38;;
83245;SDS011;73140;46.754;17.714;2023-12-20T23:57:44;15.65;;;10.15;;
